In Rescue
 
Open Full Screen Window  High Contrast Mode
Wind Gusting 00 knots
05
May 13, 2021 12:07 PM EDT
Weather Information
Wind Direction
  020 °
Wind Speed
  05 kt (6 mph)
Wind Gust
  00 kt (0 mph)
Altimeter
30.38 in
Visibility
10 SM
Temperature
14° C
57° F
Dewpoint
-04° C
25° F
Humidity
29%
Sky Condition
Clear
VFR

METAR KPZQ 131607Z AUTO 02005KT 10SM CLR 14/M04 A3038 RMK AO2 T01351038

FAA Disclaimer: The data displayed is for advisory purposes only and is not to be used for flight planning or operations.